createdAt,value
2022-10-18T00:01:12.490Z,17.40
2022-10-18T00:03:39.533Z,17.30
2022-10-18T00:06:09.089Z,17.30
2022-10-18T00:08:37.383Z,17.30
2022-10-18T00:11:04.233Z,17.30
2022-10-18T00:13:31.407Z,17.30
2022-10-18T00:16:01.544Z,17.30
2022-10-18T00:18:33.088Z,17.30
2022-10-18T00:21:12.030Z,17.30
2022-10-18T00:23:39.055Z,17.30
2022-10-18T00:26:16.405Z,17.30
2022-10-18T00:28:46.580Z,17.30
2022-10-18T00:31:25.081Z,17.30
2022-10-18T00:33:54.074Z,17.30
2022-10-18T00:36:21.000Z,17.30
2022-10-18T00:38:50.810Z,17.30
2022-10-18T00:41:22.266Z,17.30
2022-10-18T00:44:07.132Z,17.30
2022-10-18T00:46:38.540Z,17.30
2022-10-18T00:49:15.616Z,17.20
2022-10-18T00:51:56.350Z,17.30
2022-10-18T00:54:24.028Z,17.30
2022-10-18T00:56:51.043Z,17.30
2022-10-18T00:59:19.096Z,17.30
2022-10-18T01:01:46.325Z,17.30
2022-10-18T01:04:15.818Z,17.30
2022-10-18T01:06:58.424Z,17.30
2022-10-18T01:09:36.983Z,17.30
2022-10-18T01:12:33.200Z,17.30
2022-10-18T01:15:24.904Z,17.30
2022-10-18T01:18:24.707Z,17.20
2022-10-18T01:20:54.374Z,17.10
2022-10-18T01:23:27.171Z,16.70
2022-10-18T01:26:10.184Z,16.60
2022-10-18T01:28:39.767Z,16.50
2022-10-18T01:31:15.145Z,16.40
2022-10-18T01:33:47.038Z,16.40
2022-10-18T01:36:35.790Z,16.40
2022-10-18T01:39:08.043Z,16.50
2022-10-18T01:41:38.630Z,16.50
2022-10-18T01:44:09.721Z,16.60
2022-10-18T01:46:41.305Z,16.60
2022-10-18T01:49:08.015Z,16.50
2022-10-18T01:51:37.006Z,16.50
2022-10-18T01:54:04.232Z,16.60
2022-10-18T01:56:46.620Z,16.60
2022-10-18T01:59:44.357Z,16.60
2022-10-18T02:02:38.245Z,16.60
2022-10-18T02:05:26.119Z,16.70
2022-10-18T02:08:23.169Z,16.70
2022-10-18T02:11:12.394Z,16.80
2022-10-18T02:13:53.868Z,16.80
2022-10-18T02:16:28.183Z,16.80
2022-10-18T02:19:02.049Z,16.90
2022-10-18T02:21:29.569Z,16.90
2022-10-18T02:23:59.240Z,16.90
2022-10-18T02:26:26.301Z,16.80
2022-10-18T02:28:53.024Z,16.90
2022-10-18T02:31:43.714Z,16.90
2022-10-18T02:34:22.318Z,16.80
2022-10-18T02:36:51.847Z,16.80
2022-10-18T02:39:23.070Z,16.80
2022-10-18T02:41:49.829Z,16.80
2022-10-18T02:44:16.503Z,16.80
2022-10-18T02:46:43.333Z,16.80
2022-10-18T02:49:09.999Z,16.80
2022-10-18T02:51:36.636Z,16.80
2022-10-18T02:54:05.893Z,16.70
2022-10-18T02:56:32.728Z,16.80
2022-10-18T02:58:59.401Z,16.70
2022-10-18T03:01:26.253Z,16.80
2022-10-18T03:03:52.977Z,16.80
2022-10-18T03:06:19.710Z,16.80
2022-10-18T03:08:46.377Z,16.80
2022-10-18T03:11:13.189Z,16.70
2022-10-18T03:13:39.976Z,16.70
2022-10-18T03:16:06.794Z,16.70
2022-10-18T03:18:33.541Z,16.70
2022-10-18T03:21:05.300Z,16.60
2022-10-18T03:23:32.104Z,16.70
2022-10-18T03:25:58.886Z,16.70
2022-10-18T03:28:25.662Z,16.70
2022-10-18T03:30:52.431Z,16.70
2022-10-18T03:33:19.170Z,16.70
2022-10-18T03:35:45.800Z,16.70
2022-10-18T03:38:12.520Z,16.70
2022-10-18T03:40:39.183Z,16.70
2022-10-18T03:43:05.847Z,16.60
2022-10-18T03:45:32.538Z,16.70
2022-10-18T03:47:59.207Z,16.70
2022-10-18T03:50:25.856Z,16.70
2022-10-18T03:52:54.145Z,16.70
2022-10-18T03:55:23.417Z,16.70
2022-10-18T03:57:50.109Z,16.70
2022-10-18T04:00:17.547Z,16.70
2022-10-18T04:02:44.252Z,16.60
2022-10-18T04:05:10.965Z,16.70
2022-10-18T04:07:37.770Z,16.70
2022-10-18T04:10:04.738Z,16.70
2022-10-18T04:12:31.815Z,16.70
2022-10-18T04:15:01.487Z,16.70
2022-10-18T04:17:28.189Z,16.70
2022-10-18T04:19:57.024Z,16.80
2022-10-18T04:22:23.773Z,16.70
2022-10-18T04:24:50.544Z,16.70
2022-10-18T04:27:17.271Z,16.80
2022-10-18T04:29:43.925Z,16.80
2022-10-18T04:32:10.662Z,16.80
2022-10-18T04:34:37.454Z,16.80
2022-10-18T04:37:04.149Z,16.90
2022-10-18T04:39:30.945Z,16.80
2022-10-18T04:41:59.837Z,16.80
2022-10-18T04:44:26.552Z,16.90
2022-10-18T04:46:53.210Z,16.90
2022-10-18T04:49:20.054Z,16.80
2022-10-18T04:51:46.790Z,16.90
2022-10-18T04:54:15.735Z,16.90
2022-10-18T04:56:42.449Z,16.90
2022-10-18T04:59:09.174Z,16.90
2022-10-18T05:01:35.932Z,16.90
2022-10-18T05:04:02.687Z,16.90
2022-10-18T05:06:29.427Z,16.90
2022-10-18T05:08:56.177Z,17.00
2022-10-18T05:11:22.888Z,17.00
2022-10-18T05:13:50.928Z,17.00
2022-10-18T05:16:18.205Z,17.00
2022-10-18T05:18:44.900Z,16.90
2022-10-18T05:21:13.988Z,16.90
2022-10-18T05:23:40.821Z,16.70
2022-10-18T05:26:09.755Z,16.60
2022-10-18T05:28:40.455Z,16.70
2022-10-18T05:31:09.647Z,16.70
2022-10-18T05:33:36.455Z,16.80
2022-10-18T05:36:05.807Z,16.80
2022-10-18T05:38:32.811Z,16.80
2022-10-18T05:41:04.104Z,16.70
2022-10-18T05:43:30.745Z,16.80
2022-10-18T05:45:57.437Z,16.90
2022-10-18T05:48:24.706Z,16.80
2022-10-18T05:50:51.453Z,16.80
2022-10-18T05:53:35.871Z,16.80
2022-10-18T05:56:06.130Z,16.70
2022-10-18T05:58:35.610Z,16.80
2022-10-18T06:01:04.143Z,16.80
2022-10-18T06:03:31.194Z,16.80
2022-10-18T06:06:06.359Z,16.80
2022-10-18T06:08:33.382Z,16.80
2022-10-18T06:11:09.627Z,16.80
2022-10-18T06:13:43.603Z,16.80
2022-10-18T06:16:11.708Z,16.80
2022-10-18T06:18:38.619Z,16.90
2022-10-18T06:21:05.706Z,16.70
2022-10-18T06:23:32.440Z,16.80
2022-10-18T06:26:04.796Z,16.70
2022-10-18T06:28:31.566Z,16.70
2022-10-18T06:31:00.707Z,16.70
2022-10-18T06:33:30.916Z,16.70
2022-10-18T06:36:12.294Z,16.80
2022-10-18T06:38:41.513Z,16.70
2022-10-18T06:41:10.959Z,16.70
2022-10-18T06:43:39.934Z,16.80
2022-10-18T06:46:08.212Z,16.80
2022-10-18T06:48:36.225Z,16.80
2022-10-18T06:51:05.294Z,16.80
2022-10-18T06:53:34.367Z,16.80
2022-10-18T06:56:05.325Z,16.90
2022-10-18T06:58:35.525Z,16.90
2022-10-18T07:01:16.121Z,16.90
2022-10-18T07:03:46.470Z,17.00
2022-10-18T07:06:15.100Z,17.00
2022-10-18T07:08:45.037Z,17.00
2022-10-18T07:11:20.385Z,17.00
2022-10-18T07:13:49.490Z,16.80
2022-10-18T07:16:18.880Z,16.90
2022-10-18T07:18:49.388Z,16.90
2022-10-18T07:21:19.109Z,17.00
2022-10-18T07:23:52.191Z,16.90
2022-10-18T07:26:24.102Z,16.70
2022-10-18T07:28:58.143Z,16.80
2022-10-18T07:31:25.733Z,16.90
2022-10-18T07:33:55.204Z,16.70
2022-10-18T07:36:22.274Z,16.80
2022-10-18T07:38:49.735Z,16.80
2022-10-18T07:41:16.453Z,16.90
2022-10-18T07:43:45.795Z,16.90
2022-10-18T07:46:15.423Z,16.80
2022-10-18T07:48:42.527Z,16.90
2022-10-18T07:51:12.304Z,16.90
2022-10-18T07:53:39.432Z,16.90
2022-10-18T07:56:11.494Z,17.00
2022-10-18T07:58:38.256Z,17.10
2022-10-18T08:01:09.097Z,17.00
2022-10-18T08:03:36.838Z,17.00
2022-10-18T08:06:05.454Z,16.90
2022-10-18T08:08:32.504Z,16.90
2022-10-18T08:11:08.639Z,17.00
2022-10-18T08:13:35.365Z,17.00
2022-10-18T08:16:14.178Z,16.90
2022-10-18T08:18:41.078Z,17.00
2022-10-18T08:21:10.270Z,17.00
2022-10-18T08:23:38.022Z,16.90
2022-10-18T08:26:07.197Z,16.90
2022-10-18T08:28:36.681Z,16.90
2022-10-18T08:31:10.775Z,16.80
2022-10-18T08:33:38.529Z,16.80
2022-10-18T08:36:08.016Z,17.00
2022-10-18T08:38:39.541Z,17.00
2022-10-18T08:41:26.574Z,17.10
2022-10-18T08:44:12.235Z,17.10
2022-10-18T08:46:45.263Z,17.20
2022-10-18T08:49:28.479Z,17.20
2022-10-18T08:51:57.246Z,17.20
2022-10-18T08:54:34.836Z,17.20
2022-10-18T08:57:04.414Z,17.10
2022-10-18T08:59:38.352Z,17.10
2022-10-18T09:02:29.717Z,17.00
2022-10-18T09:05:08.668Z,17.00
2022-10-18T09:07:38.471Z,17.00
2022-10-18T09:10:33.931Z,16.90
2022-10-18T09:13:22.018Z,17.00
2022-10-18T09:15:55.431Z,17.00
2022-10-18T09:18:37.829Z,16.80
2022-10-18T09:21:26.714Z,16.90
2022-10-18T09:24:19.142Z,17.00
2022-10-18T09:26:55.381Z,17.00
2022-10-18T09:29:46.627Z,17.00
2022-10-18T09:32:32.286Z,17.10
2022-10-18T09:35:34.522Z,17.10
2022-10-18T09:38:10.535Z,17.10
2022-10-18T09:40:45.197Z,17.20
2022-10-18T09:43:21.772Z,17.30
2022-10-18T09:45:51.023Z,17.30
2022-10-18T09:48:27.313Z,17.40
2022-10-18T09:51:22.115Z,17.40
2022-10-18T09:54:16.027Z,17.50
2022-10-18T09:57:20.975Z,17.50
2022-10-18T09:59:49.846Z,17.50
2022-10-18T10:02:19.865Z,17.60
2022-10-18T10:04:46.843Z,17.70
2022-10-18T10:07:19.698Z,17.60
2022-10-18T10:10:18.777Z,17.70
2022-10-18T10:12:49.203Z,17.70
2022-10-18T10:15:28.233Z,17.70
2022-10-18T10:18:01.082Z,17.70
2022-10-18T10:20:57.226Z,17.70
2022-10-18T10:23:33.919Z,17.60
2022-10-18T10:26:24.132Z,17.70
2022-10-18T10:28:54.179Z,17.70
2022-10-18T10:31:29.541Z,17.70
2022-10-18T10:34:14.733Z,17.60
2022-10-18T10:36:50.656Z,17.60
2022-10-18T10:39:19.478Z,17.70
2022-10-18T10:42:09.260Z,17.70
2022-10-18T10:44:38.427Z,17.80
2022-10-18T10:47:06.727Z,17.90
2022-10-18T10:49:46.741Z,17.90
2022-10-18T10:52:27.678Z,18.00
2022-10-18T10:55:30.921Z,18.00
2022-10-18T10:57:47.266Z,18.10
2022-10-18T11:00:41.461Z,18.10
2022-10-18T11:03:27.958Z,18.10
2022-10-18T11:05:57.837Z,18.00
2022-10-18T11:08:35.906Z,18.00
2022-10-18T11:11:23.372Z,17.90
2022-10-18T11:14:25.165Z,17.90
2022-10-18T11:17:08.124Z,18.00
2022-10-18T11:20:09.638Z,18.00
2022-10-18T11:22:48.154Z,18.00
2022-10-18T11:25:19.164Z,18.00
2022-10-18T11:28:04.463Z,18.10
2022-10-18T11:30:43.254Z,18.40
2022-10-18T11:34:07.118Z,18.60
2022-10-18T11:36:56.840Z,18.60
2022-10-18T11:39:42.726Z,18.60
2022-10-18T11:42:16.574Z,18.30
2022-10-18T11:44:55.402Z,18.30
2022-10-18T11:47:55.875Z,18.20
2022-10-18T11:50:48.516Z,18.20
2022-10-18T11:53:38.690Z,18.30
2022-10-18T11:56:29.575Z,19.10
2022-10-18T11:59:04.712Z,20.30
2022-10-18T12:01:36.940Z,20.80
2022-10-18T12:04:15.634Z,21.20
2022-10-18T12:06:45.227Z,21.00
2022-10-18T12:09:27.716Z,20.70
2022-10-18T12:12:02.389Z,21.10
2022-10-18T12:14:49.919Z,22.20
2022-10-18T12:17:47.477Z,22.70
2022-10-18T12:20:26.161Z,22.80
2022-10-18T12:23:02.009Z,22.80
2022-10-18T12:25:31.189Z,23.30
2022-10-18T12:28:08.884Z,22.60
2022-10-18T12:31:03.048Z,22.90
2022-10-18T12:33:35.583Z,23.40
2022-10-18T12:36:21.029Z,23.80
2022-10-18T12:38:52.328Z,23.10
2022-10-18T12:41:25.126Z,22.40
2022-10-18T12:44:17.778Z,22.50
2022-10-18T12:46:46.836Z,21.90
2022-10-18T12:49:17.370Z,21.50
2022-10-18T12:52:00.565Z,20.80
2022-10-18T12:54:31.584Z,20.30
2022-10-18T12:57:04.571Z,20.20
2022-10-18T12:59:31.315Z,20.10
2022-10-18T13:02:00.894Z,19.90
2022-10-18T13:04:27.853Z,19.60
2022-10-18T13:07:07.833Z,19.60
2022-10-18T13:09:37.541Z,19.60
2022-10-18T13:12:10.132Z,20.10
2022-10-18T13:15:05.878Z,20.40
2022-10-18T13:17:53.561Z,20.60
2022-10-18T13:20:28.061Z,20.80
2022-10-18T13:23:33.976Z,21.20
2022-10-18T13:26:09.779Z,21.30
2022-10-18T13:29:04.831Z,20.70
2022-10-18T13:32:03.939Z,21.30
2022-10-18T13:34:40.675Z,21.50
2022-10-18T13:37:12.815Z,22.20
2022-10-18T13:39:40.336Z,23.00
2022-10-18T13:42:15.885Z,23.30
2022-10-18T13:44:44.689Z,23.70
2022-10-18T13:47:34.314Z,23.90
2022-10-18T13:50:10.265Z,24.00
2022-10-18T13:52:55.857Z,23.80
2022-10-18T13:55:40.731Z,23.80
2022-10-18T13:58:49.187Z,24.10
2022-10-18T14:01:52.945Z,24.40
2022-10-18T14:04:36.320Z,24.30
2022-10-18T14:07:05.945Z,24.30
2022-10-18T14:09:56.186Z,24.10
2022-10-18T14:12:27.612Z,24.10
2022-10-18T14:15:14.736Z,24.40
2022-10-18T14:17:50.516Z,24.50
2022-10-18T14:20:29.343Z,24.80
2022-10-18T14:23:18.938Z,24.70
2022-10-18T14:25:46.162Z,24.30
2022-10-18T14:28:27.392Z,24.20
2022-10-18T14:31:12.181Z,24.30
2022-10-18T14:33:43.018Z,24.50
2022-10-18T14:36:15.446Z,24.50
2022-10-18T14:38:53.428Z,24.30
2022-10-18T14:41:20.114Z,24.10
2022-10-18T14:43:49.746Z,23.70
2022-10-18T14:46:20.546Z,23.60
2022-10-18T14:48:54.089Z,23.20
2022-10-18T14:51:21.445Z,23.20
2022-10-18T14:53:48.690Z,23.20
2022-10-18T14:56:27.702Z,23.20
2022-10-18T14:58:56.629Z,23.70
2022-10-18T15:01:27.962Z,23.50
2022-10-18T15:03:59.937Z,23.60
2022-10-18T15:06:27.418Z,23.60
2022-10-18T15:08:58.427Z,23.70
2022-10-18T15:11:27.034Z,23.50
2022-10-18T15:13:57.227Z,23.40
2022-10-18T15:16:27.786Z,23.40
2022-10-18T15:19:26.760Z,22.90
2022-10-18T15:22:19.788Z,22.80
2022-10-18T15:24:43.647Z,22.70
2022-10-18T15:27:22.190Z,22.60
2022-10-18T15:29:49.146Z,22.60
2022-10-18T15:32:27.001Z,22.50
2022-10-18T15:34:54.700Z,22.40
2022-10-18T15:37:32.656Z,22.40
2022-10-18T15:40:34.325Z,22.50
2022-10-18T15:43:25.725Z,22.90
2022-10-18T15:45:57.719Z,22.90
2022-10-18T15:48:40.277Z,22.90
2022-10-18T15:51:12.605Z,22.80
2022-10-18T15:53:52.540Z,22.70
2022-10-18T15:56:34.104Z,22.40
2022-10-18T15:59:04.059Z,22.40
2022-10-18T16:01:33.757Z,22.00
2022-10-18T16:04:01.947Z,21.60
2022-10-18T16:06:28.837Z,21.20
2022-10-18T16:08:55.666Z,20.90
2022-10-18T16:11:26.215Z,20.60
2022-10-18T16:13:56.387Z,20.40
2022-10-18T16:16:29.351Z,20.20
2022-10-18T16:18:57.128Z,20.00
2022-10-18T16:21:27.685Z,19.90
2022-10-18T16:23:54.644Z,19.80
2022-10-18T16:26:25.007Z,19.80
2022-10-18T16:28:52.426Z,19.70
2022-10-18T16:31:21.762Z,19.50
2022-10-18T16:33:49.389Z,19.40
2022-10-18T16:36:22.252Z,19.30
2022-10-18T16:38:49.914Z,19.30
2022-10-18T16:41:17.142Z,19.30
2022-10-18T16:43:46.063Z,19.20
2022-10-18T16:46:29.183Z,19.20
2022-10-18T16:48:56.877Z,19.10
2022-10-18T16:51:24.550Z,19.00
2022-10-18T16:53:53.940Z,18.80
2022-10-18T16:56:32.119Z,18.70
2022-10-18T16:58:59.764Z,18.60
2022-10-18T17:01:27.041Z,18.50
2022-10-18T17:03:53.931Z,18.50
2022-10-18T17:06:23.716Z,18.40
2022-10-18T17:08:51.479Z,18.30
2022-10-18T17:11:22.897Z,18.30
2022-10-18T17:13:49.736Z,18.30
2022-10-18T17:16:34.671Z,18.30
2022-10-18T17:19:04.770Z,18.30
2022-10-18T17:21:33.378Z,18.20
2022-10-18T17:24:03.039Z,18.10
2022-10-18T17:26:30.634Z,18.10
2022-10-18T17:29:05.089Z,18.00
2022-10-18T17:31:33.147Z,18.00
2022-10-18T17:34:01.959Z,18.00
2022-10-18T17:36:30.393Z,18.00
2022-10-18T17:39:00.147Z,17.90
2022-10-18T17:41:27.103Z,17.90
2022-10-18T17:43:53.818Z,17.80
2022-10-18T17:46:23.782Z,17.70
2022-10-18T17:48:50.605Z,17.70
2022-10-18T17:51:17.937Z,17.60
2022-10-18T17:53:45.057Z,17.60
2022-10-18T17:56:12.611Z,17.60
2022-10-18T17:58:43.483Z,17.50
2022-10-18T18:01:13.223Z,17.50
2022-10-18T18:03:42.989Z,17.40
2022-10-18T18:06:17.529Z,17.40
2022-10-18T18:08:44.763Z,17.30
2022-10-18T18:11:14.278Z,17.30
2022-10-18T18:13:41.500Z,17.00
2022-10-18T18:16:21.055Z,17.00
2022-10-18T18:18:52.699Z,17.00
2022-10-18T18:21:20.686Z,17.00
2022-10-18T18:23:48.381Z,16.90
2022-10-18T18:26:18.728Z,16.90
2022-10-18T18:28:48.898Z,16.80
2022-10-18T18:31:23.399Z,16.80
2022-10-18T18:33:55.320Z,16.80
2022-10-18T18:36:23.567Z,16.80
2022-10-18T18:38:55.496Z,16.70
2022-10-18T18:41:28.192Z,16.60
2022-10-18T18:44:01.070Z,16.50
2022-10-18T18:46:38.216Z,16.40
2022-10-18T18:49:09.927Z,16.30
2022-10-18T18:51:42.043Z,16.30
2022-10-18T18:54:11.147Z,16.30
2022-10-18T18:56:38.194Z,16.30
2022-10-18T18:59:05.930Z,16.30
2022-10-18T19:01:37.706Z,16.30
2022-10-18T19:04:06.564Z,16.30
2022-10-18T19:06:38.890Z,16.40
2022-10-18T19:09:22.093Z,16.40
2022-10-18T19:11:56.707Z,16.40
2022-10-18T19:14:25.120Z,16.30
2022-10-18T19:16:55.127Z,16.20
2022-10-18T19:19:29.654Z,16.10
2022-10-18T19:22:01.998Z,16.00
2022-10-18T19:24:30.348Z,16.00
2022-10-18T19:27:09.600Z,16.00
2022-10-18T19:29:39.212Z,16.00
2022-10-18T19:32:08.744Z,16.00
2022-10-18T19:34:38.157Z,16.00
2022-10-18T19:37:04.950Z,16.00
2022-10-18T19:39:35.456Z,16.00
2022-10-18T19:42:05.541Z,16.00
2022-10-18T19:44:35.837Z,15.90
2022-10-18T19:47:04.309Z,15.90
2022-10-18T19:49:31.092Z,15.80
2022-10-18T19:52:00.357Z,15.70
2022-10-18T19:54:27.186Z,15.60
2022-10-18T19:56:56.432Z,15.60
2022-10-18T19:59:24.673Z,15.60
2022-10-18T20:01:51.438Z,15.60
2022-10-18T20:04:20.297Z,15.60
2022-10-18T20:06:49.582Z,15.60
2022-10-18T20:09:19.577Z,15.60
2022-10-18T20:11:50.230Z,15.50
2022-10-18T20:14:16.984Z,15.40
2022-10-18T20:16:43.682Z,15.40
2022-10-18T20:19:13.050Z,15.40
2022-10-18T20:21:40.000Z,15.40
2022-10-18T20:24:07.898Z,15.40
2022-10-18T20:26:35.781Z,15.30
2022-10-18T20:29:03.015Z,15.30
2022-10-18T20:31:31.887Z,15.10
2022-10-18T20:34:03.566Z,15.10
2022-10-18T20:36:31.736Z,15.10
2022-10-18T20:38:58.843Z,15.10
2022-10-18T20:41:28.727Z,15.10
2022-10-18T20:44:04.454Z,15.10
2022-10-18T20:46:33.170Z,15.10
2022-10-18T20:48:59.906Z,15.20
2022-10-18T20:51:27.190Z,15.10
2022-10-18T20:53:56.528Z,15.10
2022-10-18T20:56:26.693Z,15.10
2022-10-18T20:58:57.422Z,15.10
2022-10-18T21:01:26.673Z,15.00
2022-10-18T21:03:54.750Z,15.00
2022-10-18T21:06:24.564Z,14.90
2022-10-18T21:08:56.269Z,15.00
2022-10-18T21:11:23.926Z,14.90
2022-10-18T21:13:52.003Z,14.90
2022-10-18T21:16:19.061Z,14.90
2022-10-18T21:18:45.824Z,14.90
2022-10-18T21:21:19.198Z,14.90
2022-10-18T21:23:47.122Z,14.90
2022-10-18T21:26:19.279Z,14.80
2022-10-18T21:28:51.167Z,14.80
2022-10-18T21:31:20.992Z,14.70
2022-10-18T21:33:53.954Z,14.70
2022-10-18T21:36:21.514Z,14.70
2022-10-18T21:38:49.056Z,14.70
2022-10-18T21:41:17.227Z,14.70
2022-10-18T21:43:51.827Z,14.70
2022-10-18T21:46:20.948Z,14.70
2022-10-18T21:48:50.430Z,14.70
2022-10-18T21:51:19.645Z,14.60
2022-10-18T21:53:47.900Z,14.40
2022-10-18T21:56:19.062Z,14.30
2022-10-18T21:58:48.427Z,14.20
2022-10-18T22:01:19.938Z,14.20
2022-10-18T22:03:49.728Z,14.20
2022-10-18T22:06:19.647Z,14.20
2022-10-18T22:08:52.487Z,14.20
2022-10-18T22:11:22.057Z,14.20
2022-10-18T22:13:49.347Z,14.20
2022-10-18T22:16:17.141Z,14.20
2022-10-18T22:18:46.658Z,14.20
2022-10-18T22:21:14.918Z,14.20
2022-10-18T22:23:44.685Z,14.10
2022-10-18T22:26:14.506Z,14.10
2022-10-18T22:28:43.189Z,14.10
2022-10-18T22:35:16.919Z,14.10
2022-10-18T22:37:44.141Z,13.80
2022-10-18T22:40:11.199Z,13.70
2022-10-18T22:42:37.935Z,13.70
2022-10-18T22:45:05.220Z,13.70
2022-10-18T22:47:32.779Z,13.80
2022-10-18T22:49:59.776Z,13.80
2022-10-18T22:52:26.593Z,13.80
2022-10-18T22:54:53.684Z,13.80
2022-10-18T22:57:20.600Z,13.80
2022-10-18T22:59:47.567Z,13.80
2022-10-18T23:02:14.792Z,13.80
2022-10-18T23:04:41.795Z,13.80
2022-10-18T23:07:09.018Z,13.80
2022-10-18T23:12:05.581Z,13.70
2022-10-18T23:14:32.257Z,13.70
2022-10-18T23:16:59.039Z,13.70
2022-10-18T23:19:25.774Z,13.70
2022-10-18T23:21:52.601Z,13.70
2022-10-18T23:24:19.374Z,13.70
2022-10-18T23:26:46.397Z,13.70
2022-10-18T23:29:13.854Z,13.60
2022-10-18T23:31:40.800Z,13.60
2022-10-18T23:34:07.694Z,13.50
2022-10-18T23:36:35.200Z,13.50
2022-10-18T23:39:07.502Z,13.50
2022-10-18T23:41:35.038Z,13.50
2022-10-18T23:44:02.801Z,13.40
2022-10-18T23:46:29.562Z,13.40
2022-10-18T23:48:56.374Z,13.40
2022-10-18T23:51:23.145Z,13.40
2022-10-18T23:53:50.015Z,13.40
2022-10-18T23:56:17.132Z,13.30
